sensor_id;sensor_type;location;lat;lon;timestamp;pressure;altitude;pressure_sealevel;temperature;humidity
50434;BME280;36361;38.954;-9.002;2024-01-30T00:00:42;101824.00;;;13.17;100.00
50434;BME280;36361;38.954;-9.002;2024-01-30T00:01:43;101829.19;;;12.99;100.00
50434;BME280;36361;38.954;-9.002;2024-01-30T00:02:44;101820.38;;;13.10;100.00
50434;BME280;36361;38.954;-9.002;2024-01-30T00:03:46;101827.28;;;13.06;100.00
50434;BME280;36361;38.954;-9.002;2024-01-30T00:04:47;101828.97;;;13.00;100.00
50434;BME280;36361;38.954;-9.002;2024-01-30T00:05:48;101824.25;;;12.88;100.00
50434;BME280;36361;38.954;-9.002;2024-01-30T00:06:48;101828.75;;;13.02;100.00
50434;BME280;36361;38.954;-9.002;2024-01-30T00:07:50;101829.22;;;13.12;100.00
50434;BME280;36361;38.954;-9.002;2024-01-30T00:08:51;101838.97;;;13.21;100.00
50434;BME280;36361;38.954;-9.002;2024-01-30T00:09:51;101824.00;;;13.17;100.00
50434;BME280;36361;38.954;-9.002;2024-01-30T00:10:52;101826.97;;;13.22;100.00
50434;BME280;36361;38.954;-9.002;2024-01-30T00:11:53;101833.22;;;13.16;100.00
50434;BME280;36361;38.954;-9.002;2024-01-30T00:12:54;101828.75;;;13.02;100.00
50434;BME280;36361;38.954;-9.002;2024-01-30T00:13:55;101830.03;;;13.06;100.00
50434;BME280;36361;38.954;-9.002;2024-01-30T00:14:58;101829.81;;;13.01;100.00
50434;BME280;36361;38.954;-9.002;2024-01-30T00:16:00;101838.47;;;13.11;100.00
50434;BME280;36361;38.954;-9.002;2024-01-30T00:17:00;101836.63;;;13.18;100.00
50434;BME280;36361;38.954;-9.002;2024-01-30T00:18:01;101831.31;;;13.10;100.00
50434;BME280;36361;38.954;-9.002;2024-01-30T00:19:02;101834.25;;;13.08;100.00
50434;BME280;36361;38.954;-9.002;2024-01-30T00:20:04;101827.72;;;13.03;100.00
50434;BME280;36361;38.954;-9.002;2024-01-30T00:21:09;101836.31;;;13.00;100.00
50434;BME280;36361;38.954;-9.002;2024-01-30T00:22:10;101840.91;;;12.93;100.00
50434;BME280;36361;38.954;-9.002;2024-01-30T00:23:11;101829.97;;;12.93;100.00
50434;BME280;36361;38.954;-9.002;2024-01-30T00:24:11;101827.44;;;12.91;100.00
50434;BME280;36361;38.954;-9.002;2024-01-30T00:25:12;101837.94;;;12.88;100.00
50434;BME280;36361;38.954;-9.002;2024-01-30T00:26:13;101831.41;;;12.89;100.00
50434;BME280;36361;38.954;-9.002;2024-01-30T00:27:15;101829.88;;;12.79;100.00
50434;BME280;36361;38.954;-9.002;2024-01-30T00:28:16;101835.34;;;12.79;100.00
50434;BME280;36361;38.954;-9.002;2024-01-30T00:29:17;101830.44;;;13.03;100.00
50434;BME280;36361;38.954;-9.002;2024-01-30T00:30:20;101828.94;;;12.94;100.00
50434;BME280;36361;38.954;-9.002;2024-01-30T00:31:21;101829.41;;;12.69;100.00
50434;BME280;36361;38.954;-9.002;2024-01-30T00:32:22;101832.81;;;12.71;100.00
50434;BME280;36361;38.954;-9.002;2024-01-30T00:33:24;101819.28;;;12.57;100.00
50434;BME280;36361;38.954;-9.002;2024-01-30T00:34:24;101830.78;;;12.52;100.00
50434;BME280;36361;38.954;-9.002;2024-01-30T00:35:25;101832.59;;;12.73;100.00
50434;BME280;36361;38.954;-9.002;2024-01-30T00:36:26;101834.03;;;12.62;100.00
50434;BME280;36361;38.954;-9.002;2024-01-30T00:37:30;101839.50;;;12.62;100.00
50434;BME280;36361;38.954;-9.002;2024-01-30T00:38:32;101829.84;;;12.66;100.00
50434;BME280;36361;38.954;-9.002;2024-01-30T00:39:33;101831.41;;;12.82;100.00
50434;BME280;36361;38.954;-9.002;2024-01-30T00:40:34;101833.66;;;12.72;100.00
50434;BME280;36361;38.954;-9.002;2024-01-30T00:41:35;101838.50;;;12.76;100.00
50434;BME280;36361;38.954;-9.002;2024-01-30T00:42:36;101833.66;;;12.78;100.00
50434;BME280;36361;38.954;-9.002;2024-01-30T00:43:37;101830.94;;;12.78;100.00
50434;BME280;36361;38.954;-9.002;2024-01-30T00:44:37;101838.28;;;12.71;100.00
50434;BME280;36361;38.954;-9.002;2024-01-30T00:45:39;101839.50;;;12.69;100.00
50434;BME280;36361;38.954;-9.002;2024-01-30T00:46:40;101844.66;;;12.85;100.00
50434;BME280;36361;38.954;-9.002;2024-01-30T00:47:41;101832.47;;;12.88;100.00
50434;BME280;36361;38.954;-9.002;2024-01-30T00:48:41;101838.66;;;12.68;100.00
50434;BME280;36361;38.954;-9.002;2024-01-30T00:49:42;101840.34;;;12.69;100.00
50434;BME280;36361;38.954;-9.002;2024-01-30T00:50:43;101843.75;;;12.71;100.00
50434;BME280;36361;38.954;-9.002;2024-01-30T00:51:44;101839.56;;;12.75;100.00
50434;BME280;36361;38.954;-9.002;2024-01-30T00:52:45;101838.44;;;12.70;100.00
50434;BME280;36361;38.954;-9.002;2024-01-30T00:53:45;101844.53;;;12.65;100.00
50434;BME280;36361;38.954;-9.002;2024-01-30T00:54:46;101839.50;;;12.62;100.00
50434;BME280;36361;38.954;-9.002;2024-01-30T00:55:47;101854.97;;;12.55;100.00
50434;BME280;36361;38.954;-9.002;2024-01-30T00:56:48;101857.06;;;12.53;100.00
50434;BME280;36361;38.954;-9.002;2024-01-30T00:57:49;101859.13;;;12.51;100.00
50434;BME280;36361;38.954;-9.002;2024-01-30T00:58:50;101866.78;;;12.62;100.00
50434;BME280;36361;38.954;-9.002;2024-01-30T00:59:50;101860.91;;;12.65;100.00
50434;BME280;36361;38.954;-9.002;2024-01-30T01:00:51;101864.56;;;12.79;100.00
50434;BME280;36361;38.954;-9.002;2024-01-30T01:01:52;101868.22;;;12.93;100.00
50434;BME280;36361;38.954;-9.002;2024-01-30T01:02:53;101867.66;;;13.04;100.00
50434;BME280;36361;38.954;-9.002;2024-01-30T01:03:54;101860.72;;;13.01;100.00
50434;BME280;36361;38.954;-9.002;2024-01-30T01:04:55;101863.25;;;13.03;100.00
50434;BME280;36361;38.954;-9.002;2024-01-30T01:05:55;101866.59;;;13.05;100.00
50434;BME280;36361;38.954;-9.002;2024-01-30T01:06:56;101865.75;;;13.04;100.00
50434;BME280;36361;38.954;-9.002;2024-01-30T01:07:57;101859.44;;;13.04;100.00
50434;BME280;36361;38.954;-9.002;2024-01-30T01:08:58;101861.50;;;12.95;100.00
50434;BME280;36361;38.954;-9.002;2024-01-30T01:09:58;101856.97;;;13.09;100.00
50434;BME280;36361;38.954;-9.002;2024-01-30T01:10:59;101863.28;;;13.09;100.00
50434;BME280;36361;38.954;-9.002;2024-01-30T01:12:01;101860.13;;;13.13;100.00
50434;BME280;36361;38.954;-9.002;2024-01-30T01:13:02;101856.66;;;13.32;100.00
50434;BME280;36361;38.954;-9.002;2024-01-30T01:14:04;101860.41;;;13.24;100.00
50434;BME280;36361;38.954;-9.002;2024-01-30T01:15:05;101856.09;;;13.02;100.00
50434;BME280;36361;38.954;-9.002;2024-01-30T01:16:09;101861.84;;;12.79;100.00
50434;BME280;36361;38.954;-9.002;2024-01-30T01:17:10;101856.19;;;12.80;100.00
50434;BME280;36361;38.954;-9.002;2024-01-30T01:18:11;101846.84;;;12.68;100.00
50434;BME280;36361;38.954;-9.002;2024-01-30T01:19:12;101850.19;;;12.64;100.00
50434;BME280;36361;38.954;-9.002;2024-01-30T01:20:13;101859.81;;;12.60;100.00
50434;BME280;36361;38.954;-9.002;2024-01-30T01:21:14;101859.13;;;12.51;100.00
50434;BME280;36361;38.954;-9.002;2024-01-30T01:22:15;101856.25;;;12.59;100.00
50434;BME280;36361;38.954;-9.002;2024-01-30T01:23:17;101852.88;;;12.57;100.00
50434;BME280;36361;38.954;-9.002;2024-01-30T01:24:18;101855.91;;;12.41;100.00
50434;BME280;36361;38.954;-9.002;2024-01-30T01:25:19;101854.50;;;12.45;100.00
50434;BME280;36361;38.954;-9.002;2024-01-30T01:26:20;101854.72;;;12.50;100.00
50434;BME280;36361;38.954;-9.002;2024-01-30T01:27:21;101851.47;;;12.68;100.00
50434;BME280;36361;38.954;-9.002;2024-01-30T01:28:22;101860.19;;;12.85;100.00
50434;BME280;36361;38.954;-9.002;2024-01-30T01:29:23;101850.44;;;12.69;100.00
50434;BME280;36361;38.954;-9.002;2024-01-30T01:30:29;101852.78;;;12.72;100.00
50434;BME280;36361;38.954;-9.002;2024-01-30T01:31:30;101852.00;;;12.85;100.00
50434;BME280;36361;38.954;-9.002;2024-01-30T01:32:31;101854.31;;;12.81;100.00
50434;BME280;36361;38.954;-9.002;2024-01-30T01:33:32;101852.56;;;12.73;100.00
50434;BME280;36361;38.954;-9.002;2024-01-30T01:34:33;101853.47;;;12.80;100.00
50434;BME280;36361;38.954;-9.002;2024-01-30T01:35:34;101853.63;;;12.79;100.00
50434;BME280;36361;38.954;-9.002;2024-01-30T01:36:35;101851.28;;;12.69;100.00
50434;BME280;36361;38.954;-9.002;2024-01-30T01:37:36;101849.50;;;12.55;100.00
50434;BME280;36361;38.954;-9.002;2024-01-30T01:38:37;101850.78;;;12.59;100.00
50434;BME280;36361;38.954;-9.002;2024-01-30T01:39:38;101847.41;;;12.57;100.00
50434;BME280;36361;38.954;-9.002;2024-01-30T01:40:38;101843.84;;;12.57;100.00
50434;BME280;36361;38.954;-9.002;2024-01-30T01:41:40;101848.63;;;12.48;100.00
50434;BME280;36361;38.954;-9.002;2024-01-30T01:42:41;101849.50;;;12.55;100.00
50434;BME280;36361;38.954;-9.002;2024-01-30T01:43:41;101847.38;;;12.50;100.00
50434;BME280;36361;38.954;-9.002;2024-01-30T01:44:42;101852.81;;;12.44;100.00
50434;BME280;36361;38.954;-9.002;2024-01-30T01:45:43;101848.53;;;12.63;100.00
50434;BME280;36361;38.954;-9.002;2024-01-30T01:46:44;101835.97;;;12.75;100.00
50434;BME280;36361;38.954;-9.002;2024-01-30T01:47:47;101846.28;;;12.73;100.00
50434;BME280;36361;38.954;-9.002;2024-01-30T01:48:50;101847.91;;;12.67;100.00
50434;BME280;36361;38.954;-9.002;2024-01-30T01:49:51;101847.91;;;12.67;100.00
50434;BME280;36361;38.954;-9.002;2024-01-30T01:50:52;101855.81;;;12.56;100.00
50434;BME280;36361;38.954;-9.002;2024-01-30T01:51:55;101851.94;;;12.43;100.00
50434;BME280;36361;38.954;-9.002;2024-01-30T01:52:59;101849.09;;;12.58;100.00
50434;BME280;36361;38.954;-9.002;2024-01-30T01:54:03;101850.94;;;12.51;100.00
50434;BME280;36361;38.954;-9.002;2024-01-30T01:55:04;101851.59;;;12.53;100.00
50434;BME280;36361;38.954;-9.002;2024-01-30T01:56:06;101852.00;;;12.50;100.00
50434;BME280;36361;38.954;-9.002;2024-01-30T01:57:07;101850.78;;;12.59;100.00
50434;BME280;36361;38.954;-9.002;2024-01-30T01:58:08;101853.38;;;12.67;100.00
50434;BME280;36361;38.954;-9.002;2024-01-30T01:59:10;101856.25;;;12.59;100.00
50434;BME280;36361;38.954;-9.002;2024-01-30T02:00:12;101857.84;;;12.47;100.00
50434;BME280;36361;38.954;-9.002;2024-01-30T02:01:13;101857.09;;;12.32;100.00
50434;BME280;36361;38.954;-9.002;2024-01-30T02:02:17;101851.09;;;12.43;100.00
50434;BME280;36361;38.954;-9.002;2024-01-30T02:03:19;101850.31;;;12.49;100.00
50434;BME280;36361;38.954;-9.002;2024-01-30T02:04:23;101858.50;;;12.49;100.00
50434;BME280;36361;38.954;-9.002;2024-01-30T02:05:24;101855.34;;;12.52;100.00
50434;BME280;36361;38.954;-9.002;2024-01-30T02:06:26;101859.97;;;12.51;100.00
50434;BME280;36361;38.954;-9.002;2024-01-30T02:07:28;101856.81;;;12.48;100.00
50434;BME280;36361;38.954;-9.002;2024-01-30T02:08:28;101864.09;;;12.41;100.00
50434;BME280;36361;38.954;-9.002;2024-01-30T02:09:29;101873.19;;;12.48;100.00
50434;BME280;36361;38.954;-9.002;2024-01-30T02:10:30;101859.28;;;12.43;100.00
50434;BME280;36361;38.954;-9.002;2024-01-30T02:11:31;101873.75;;;12.37;100.00
50434;BME280;36361;38.954;-9.002;2024-01-30T02:12:32;101866.59;;;12.36;100.00
50434;BME280;36361;38.954;-9.002;2024-01-30T02:13:33;101868.22;;;12.58;100.00
50434;BME280;36361;38.954;-9.002;2024-01-30T02:14:44;101868.50;;;12.35;100.00
50434;BME280;36361;38.954;-9.002;2024-01-30T02:15:49;101878.91;;;12.53;100.00
50434;BME280;36361;38.954;-9.002;2024-01-30T02:16:50;101867.66;;;12.69;100.00
50434;BME280;36361;38.954;-9.002;2024-01-30T02:17:51;101879.41;;;12.70;100.00
50434;BME280;36361;38.954;-9.002;2024-01-30T02:18:52;101877.75;;;12.69;100.00
50434;BME280;36361;38.954;-9.002;2024-01-30T02:19:53;101875.13;;;12.54;100.00
50434;BME280;36361;38.954;-9.002;2024-01-30T02:20:56;101869.63;;;12.47;100.00
50434;BME280;36361;38.954;-9.002;2024-01-30T02:21:57;101873.63;;;12.51;100.00
50434;BME280;36361;38.954;-9.002;2024-01-30T02:22:58;101872.00;;;12.57;100.00
50434;BME280;36361;38.954;-9.002;2024-01-30T02:24:02;101876.41;;;12.58;100.00
50434;BME280;36361;38.954;-9.002;2024-01-30T02:25:04;101865.91;;;12.55;100.00
50434;BME280;36361;38.954;-9.002;2024-01-30T02:26:05;101858.81;;;12.67;100.00
50434;BME280;36361;38.954;-9.002;2024-01-30T02:27:06;101864.50;;;12.66;100.00
50434;BME280;36361;38.954;-9.002;2024-01-30T02:28:06;101874.44;;;12.73;100.00
50434;BME280;36361;38.954;-9.002;2024-01-30T02:29:07;101863.50;;;12.73;100.00
50434;BME280;36361;38.954;-9.002;2024-01-30T02:30:08;101859.63;;;12.61;100.00
50434;BME280;36361;38.954;-9.002;2024-01-30T02:31:09;101865.84;;;12.48;100.00
50434;BME280;36361;38.954;-9.002;2024-01-30T02:32:10;101862.53;;;12.53;100.00
50434;BME280;36361;38.954;-9.002;2024-01-30T02:33:11;101867.19;;;12.59;100.00
50434;BME280;36361;38.954;-9.002;2024-01-30T02:34:13;101868.06;;;12.66;100.00
50434;BME280;36361;38.954;-9.002;2024-01-30T02:35:14;101867.28;;;12.72;100.00
50434;BME280;36361;38.954;-9.002;2024-01-30T02:36:15;101870.06;;;12.86;100.00
50434;BME280;36361;38.954;-9.002;2024-01-30T02:37:16;101866.25;;;12.80;100.00
50434;BME280;36361;38.954;-9.002;2024-01-30T02:38:17;101861.84;;;12.79;100.00
50434;BME280;36361;38.954;-9.002;2024-01-30T02:39:18;101867.75;;;12.82;100.00
50434;BME280;36361;38.954;-9.002;2024-01-30T02:40:19;101860.63;;;12.88;100.00
50434;BME280;36361;38.954;-9.002;2024-01-30T02:41:20;101873.78;;;12.71;100.00
50434;BME280;36361;38.954;-9.002;2024-01-30T02:42:21;101867.72;;;12.76;100.00
50434;BME280;36361;38.954;-9.002;2024-01-30T02:43:22;101876.59;;;12.85;100.00
50434;BME280;36361;38.954;-9.002;2024-01-30T02:44:23;101868.31;;;12.71;100.00
50434;BME280;36361;38.954;-9.002;2024-01-30T02:45:24;101878.03;;;12.80;100.00
50434;BME280;36361;38.954;-9.002;2024-01-30T02:46:25;101880.38;;;12.84;100.00
50434;BME280;36361;38.954;-9.002;2024-01-30T02:47:26;101874.94;;;12.90;100.00
50434;BME280;36361;38.954;-9.002;2024-01-30T02:48:26;101875.84;;;12.69;100.00
50434;BME280;36361;38.954;-9.002;2024-01-30T02:49:27;101885.72;;;12.70;100.00
50434;BME280;36361;38.954;-9.002;2024-01-30T02:50:28;101877.53;;;12.70;100.00
50434;BME280;36361;38.954;-9.002;2024-01-30T02:51:29;101883.88;;;12.77;100.00
50434;BME280;36361;38.954;-9.002;2024-01-30T02:52:29;101884.72;;;12.78;100.00
50434;BME280;36361;38.954;-9.002;2024-01-30T02:53:30;101881.31;;;12.69;100.00
50434;BME280;36361;38.954;-9.002;2024-01-30T02:54:31;101879.00;;;12.66;100.00
50434;BME280;36361;38.954;-9.002;2024-01-30T02:55:32;101881.47;;;12.61;100.00
50434;BME280;36361;38.954;-9.002;2024-01-30T02:56:33;101876.91;;;12.68;100.00
50434;BME280;36361;38.954;-9.002;2024-01-30T02:57:34;101875.84;;;12.69;100.00
50434;BME280;36361;38.954;-9.002;2024-01-30T02:58:36;101877.38;;;12.78;100.00
50434;BME280;36361;38.954;-9.002;2024-01-30T02:59:37;101874.06;;;12.83;100.00
50434;BME280;36361;38.954;-9.002;2024-01-30T03:00:37;101877.75;;;12.69;100.00
50434;BME280;36361;38.954;-9.002;2024-01-30T03:01:45;101872.38;;;12.89;100.00
50434;BME280;36361;38.954;-9.002;2024-01-30T03:02:46;101875.38;;;12.94;100.00
50434;BME280;36361;38.954;-9.002;2024-01-30T03:03:47;101877.84;;;12.89;100.00
50434;BME280;36361;38.954;-9.002;2024-01-30T03:04:48;101877.03;;;12.53;100.00
50434;BME280;36361;38.954;-9.002;2024-01-30T03:05:49;101881.31;;;12.69;100.00
50434;BME280;36361;38.954;-9.002;2024-01-30T03:06:50;101877.16;;;12.45;100.00
50434;BME280;36361;38.954;-9.002;2024-01-30T03:07:50;101873.78;;;12.43;100.00
50434;BME280;36361;38.954;-9.002;2024-01-30T03:08:51;101873.53;;;12.66;100.00
50434;BME280;36361;38.954;-9.002;2024-01-30T03:09:52;101879.88;;;12.73;100.00
50434;BME280;36361;38.954;-9.002;2024-01-30T03:10:53;101865.34;;;12.66;100.00
50434;BME280;36361;38.954;-9.002;2024-01-30T03:11:54;101871.91;;;12.44;100.00
50434;BME280;36361;38.954;-9.002;2024-01-30T03:12:55;101867.09;;;12.46;100.00
50434;BME280;36361;38.954;-9.002;2024-01-30T03:13:55;101869.13;;;12.37;100.00
50434;BME280;36361;38.954;-9.002;2024-01-30T03:14:56;101865.44;;;12.23;100.00
50434;BME280;36361;38.954;-9.002;2024-01-30T03:15:57;101865.84;;;12.20;100.00
50434;BME280;36361;38.954;-9.002;2024-01-30T03:16:58;101871.88;;;12.16;100.00
50434;BME280;36361;38.954;-9.002;2024-01-30T03:17:59;101862.34;;;12.33;100.00
50434;BME280;36361;38.954;-9.002;2024-01-30T03:18:59;101864.84;;;12.28;100.00
50434;BME280;36361;38.954;-9.002;2024-01-30T03:20:03;101870.38;;;12.35;100.00
50434;BME280;36361;38.954;-9.002;2024-01-30T03:21:04;101871.09;;;12.50;100.00
50434;BME280;36361;38.954;-9.002;2024-01-30T03:22:05;101866.59;;;12.70;100.00
50434;BME280;36361;38.954;-9.002;2024-01-30T03:23:06;101864.69;;;12.64;100.00
50434;BME280;36361;38.954;-9.002;2024-01-30T03:24:07;101863.88;;;12.70;100.00
50434;BME280;36361;38.954;-9.002;2024-01-30T03:25:07;101871.44;;;12.68;100.00
50434;BME280;36361;38.954;-9.002;2024-01-30T03:26:08;101863.94;;;12.77;100.00
50434;BME280;36361;38.954;-9.002;2024-01-30T03:27:09;101864.59;;;12.51;100.00
50434;BME280;36361;38.954;-9.002;2024-01-30T03:28:10;101871.00;;;12.65;100.00
50434;BME280;36361;38.954;-9.002;2024-01-30T03:29:11;101867.28;;;12.79;100.00
50434;BME280;36361;38.954;-9.002;2024-01-30T03:30:12;101863.25;;;12.68;100.00
50434;BME280;36361;38.954;-9.002;2024-01-30T03:31:15;101860.91;;;12.65;100.00
50434;BME280;36361;38.954;-9.002;2024-01-30T03:32:16;101867.19;;;12.59;100.00
50434;BME280;36361;38.954;-9.002;2024-01-30T03:33:17;101877.97;;;12.39;100.00
50434;BME280;36361;38.954;-9.002;2024-01-30T03:34:18;101868.38;;;12.50;100.00
50434;BME280;36361;38.954;-9.002;2024-01-30T03:35:19;101876.47;;;12.65;100.00
50434;BME280;36361;38.954;-9.002;2024-01-30T03:36:20;101874.28;;;12.53;100.00
50434;BME280;36361;38.954;-9.002;2024-01-30T03:37:21;101873.03;;;12.56;100.00
50434;BME280;36361;38.954;-9.002;2024-01-30T03:38:21;101875.03;;;12.41;100.00
50434;BME280;36361;38.954;-9.002;2024-01-30T03:39:23;101874.66;;;12.44;100.00
50434;BME280;36361;38.954;-9.002;2024-01-30T03:40:23;101880.59;;;12.54;100.00
50434;BME280;36361;38.954;-9.002;2024-01-30T03:41:24;101870.38;;;12.35;100.00
50434;BME280;36361;38.954;-9.002;2024-01-30T03:42:25;101879.63;;;12.40;100.00
50434;BME280;36361;38.954;-9.002;2024-01-30T03:43:27;101877.59;;;12.21;100.00
50434;BME280;36361;38.954;-9.002;2024-01-30T03:44:28;101877.16;;;12.17;100.00
50434;BME280;36361;38.954;-9.002;2024-01-30T03:45:29;101871.38;;;12.06;100.00
50434;BME280;36361;38.954;-9.002;2024-01-30T03:46:29;101873.13;;;12.13;100.00
50434;BME280;36361;38.954;-9.002;2024-01-30T03:47:30;101874.81;;;12.14;100.00
50434;BME280;36361;38.954;-9.002;2024-01-30T03:48:31;101878.84;;;12.18;100.00
50434;BME280;36361;38.954;-9.002;2024-01-30T03:49:32;101880.03;;;12.09;100.00
50434;BME280;36361;38.954;-9.002;2024-01-30T03:50:33;101871.44;;;12.12;100.00
50434;BME280;36361;38.954;-9.002;2024-01-30T03:51:34;101878.97;;;12.10;100.00
50434;BME280;36361;38.954;-9.002;2024-01-30T03:52:34;101863.00;;;12.07;100.00
50434;BME280;36361;38.954;-9.002;2024-01-30T03:53:35;101864.69;;;11.87;100.00
50434;BME280;36361;38.954;-9.002;2024-01-30T03:54:36;101883.84;;;11.93;100.00
50434;BME280;36361;38.954;-9.002;2024-01-30T03:55:37;101882.75;;;12.09;100.00
50434;BME280;36361;38.954;-9.002;2024-01-30T03:56:37;101877.09;;;11.89;100.00
50434;BME280;36361;38.954;-9.002;2024-01-30T03:57:38;101870.59;;;12.12;100.00
50434;BME280;36361;38.954;-9.002;2024-01-30T03:58:39;101875.47;;;12.16;100.00
50434;BME280;36361;38.954;-9.002;2024-01-30T03:59:43;101872.44;;;12.33;100.00
50434;BME280;36361;38.954;-9.002;2024-01-30T04:00:44;101876.06;;;12.40;100.00
50434;BME280;36361;38.954;-9.002;2024-01-30T04:01:46;101863.69;;;12.16;100.00
50434;BME280;36361;38.954;-9.002;2024-01-30T04:02:47;101877.16;;;11.96;100.00
50434;BME280;36361;38.954;-9.002;2024-01-30T04:03:48;101868.72;;;11.91;100.00
50434;BME280;36361;38.954;-9.002;2024-01-30T04:04:49;101867.81;;;11.84;100.00
50434;BME280;36361;38.954;-9.002;2024-01-30T04:05:51;101878.78;;;11.90;100.00
50434;BME280;36361;38.954;-9.002;2024-01-30T04:06:51;101877.47;;;11.86;100.00
50434;BME280;36361;38.954;-9.002;2024-01-30T04:07:52;101858.47;;;11.93;100.00
50434;BME280;36361;38.954;-9.002;2024-01-30T04:08:53;101876.50;;;11.94;100.00
50434;BME280;36361;38.954;-9.002;2024-01-30T04:09:54;101864.03;;;11.85;100.00
50434;BME280;36361;38.954;-9.002;2024-01-30T04:10:55;101861.81;;;11.74;100.00
50434;BME280;36361;38.954;-9.002;2024-01-30T04:11:55;101863.19;;;11.84;100.00
50434;BME280;36361;38.954;-9.002;2024-01-30T04:12:56;101860.31;;;11.71;100.00
50434;BME280;36361;38.954;-9.002;2024-01-30T04:13:57;101868.31;;;11.94;100.00
50434;BME280;36361;38.954;-9.002;2024-01-30T04:14:58;101860.41;;;11.99;100.00
50434;BME280;36361;38.954;-9.002;2024-01-30T04:16:00;101859.56;;;11.99;100.00
50434;BME280;36361;38.954;-9.002;2024-01-30T04:17:03;101868.72;;;11.91;100.00
50434;BME280;36361;38.954;-9.002;2024-01-30T04:18:04;101864.44;;;11.82;100.00
50434;BME280;36361;38.954;-9.002;2024-01-30T04:19:05;101867.16;;;12.03;100.00
50434;BME280;36361;38.954;-9.002;2024-01-30T04:20:06;101871.66;;;11.89;100.00
50434;BME280;36361;38.954;-9.002;2024-01-30T04:21:07;101849.03;;;11.95;100.00
50434;BME280;36361;38.954;-9.002;2024-01-30T04:22:08;101862.88;;;11.94;100.00
50434;BME280;36361;38.954;-9.002;2024-01-30T04:23:09;101864.94;;;11.71;100.00
50434;BME280;36361;38.954;-9.002;2024-01-30T04:24:09;101859.72;;;11.76;100.00
50434;BME280;36361;38.954;-9.002;2024-01-30T04:25:11;101864.25;;;11.68;100.00
50434;BME280;36361;38.954;-9.002;2024-01-30T04:26:12;101859.28;;;11.93;100.00
50434;BME280;36361;38.954;-9.002;2024-01-30T04:27:13;101853.81;;;12.15;100.00
50434;BME280;36361;38.954;-9.002;2024-01-30T04:28:13;101870.53;;;12.05;100.00
50434;BME280;36361;38.954;-9.002;2024-01-30T04:29:14;101850.78;;;12.03;100.00
50434;BME280;36361;38.954;-9.002;2024-01-30T04:30:15;101860.13;;;12.15;100.00
50434;BME280;36361;38.954;-9.002;2024-01-30T04:31:16;101865.28;;;12.32;100.00
50434;BME280;36361;38.954;-9.002;2024-01-30T04:32:17;101861.13;;;12.36;100.00
50434;BME280;36361;38.954;-9.002;2024-01-30T04:33:17;101857.66;;;12.20;100.00
50434;BME280;36361;38.954;-9.002;2024-01-30T04:34:18;101864.81;;;12.00;100.00
50434;BME280;36361;38.954;-9.002;2024-01-30T04:35:19;101859.59;;;12.05;100.00
50434;BME280;36361;38.954;-9.002;2024-01-30T04:36:23;101852.09;;;12.07;100.00
50434;BME280;36361;38.954;-9.002;2024-01-30T04:37:24;101867.69;;;11.92;100.00
50434;BME280;36361;38.954;-9.002;2024-01-30T04:38:25;101865.59;;;11.94;100.00
50434;BME280;36361;38.954;-9.002;2024-01-30T04:39:26;101860.56;;;11.98;100.00
50434;BME280;36361;38.954;-9.002;2024-01-30T04:40:27;101855.66;;;11.86;100.00
50434;BME280;36361;38.954;-9.002;2024-01-30T04:41:27;101858.31;;;12.01;100.00
50434;BME280;36361;38.954;-9.002;2024-01-30T04:42:31;101860.78;;;11.96;100.00
50434;BME280;36361;38.954;-9.002;2024-01-30T04:43:32;101857.91;;;12.04;100.00
50434;BME280;36361;38.954;-9.002;2024-01-30T04:44:33;101867.50;;;11.79;100.00
50434;BME280;36361;38.954;-9.002;2024-01-30T04:45:34;101870.53;;;11.84;100.00
50434;BME280;36361;38.954;-9.002;2024-01-30T04:46:34;101867.69;;;11.77;100.00
50434;BME280;36361;38.954;-9.002;2024-01-30T04:47:35;101864.44;;;11.82;100.00
50434;BME280;36361;38.954;-9.002;2024-01-30T04:48:36;101867.94;;;11.97;100.00
50434;BME280;36361;38.954;-9.002;2024-01-30T04:49:40;101866.44;;;11.94;100.00
50434;BME280;36361;38.954;-9.002;2024-01-30T04:50:41;101871.66;;;11.89;100.00
50434;BME280;36361;38.954;-9.002;2024-01-30T04:51:42;101866.78;;;11.85;100.00
50434;BME280;36361;38.954;-9.002;2024-01-30T04:52:42;101863.50;;;11.75;100.00
50434;BME280;36361;38.954;-9.002;2024-01-30T04:53:43;101866.34;;;11.66;100.00
50434;BME280;36361;38.954;-9.002;2024-01-30T04:54:44;101868.22;;;11.66;100.00
50434;BME280;36361;38.954;-9.002;2024-01-30T04:55:45;101862.44;;;11.76;100.00
50434;BME280;36361;38.954;-9.002;2024-01-30T04:56:45;101877.69;;;11.85;100.00
50434;BME280;36361;38.954;-9.002;2024-01-30T04:57:46;101871.19;;;11.86;100.00
50434;BME280;36361;38.954;-9.002;2024-01-30T04:58:47;101877.94;;;11.90;100.00
50434;BME280;36361;38.954;-9.002;2024-01-30T04:59:48;101873.25;;;11.84;100.00
50434;BME280;36361;38.954;-9.002;2024-01-30T05:00:48;101881.13;;;11.79;100.00
50434;BME280;36361;38.954;-9.002;2024-01-30T05:01:52;101872.44;;;11.83;100.00
50434;BME280;36361;38.954;-9.002;2024-01-30T05:02:55;101876.09;;;11.76;100.00
50434;BME280;36361;38.954;-9.002;2024-01-30T05:03:55;101879.00;;;11.74;100.00
50434;BME280;36361;38.954;-9.002;2024-01-30T05:04:56;101884.25;;;11.76;100.00
50434;BME280;36361;38.954;-9.002;2024-01-30T05:05:58;101873.88;;;11.64;100.00
50434;BME280;36361;38.954;-9.002;2024-01-30T05:06:59;101882.97;;;11.72;100.00
50434;BME280;36361;38.954;-9.002;2024-01-30T05:07:59;101874.09;;;11.84;100.00
50434;BME280;36361;38.954;-9.002;2024-01-30T05:09:00;101877.28;;;12.09;100.00
50434;BME280;36361;38.954;-9.002;2024-01-30T05:10:01;101876.47;;;12.15;100.00
50434;BME280;36361;38.954;-9.002;2024-01-30T05:11:03;101880.75;;;12.24;100.00
50434;BME280;36361;38.954;-9.002;2024-01-30T05:12:07;101862.31;;;12.27;100.00